Accueil
METAR-TAF:

METAR-TAF

Aéroports :

Aéroport de Béziers-Cap d'Agde

Béziers, France

latitude: 43-19N, longitude: 003-21E, altitude: 17 m

Observation

Le bulletin a été fait il y a 36 minutes, à 13:30 UTC
Vent 10 kt de sud/sud-ouest, variant entre sud/sud-est et sud-ouest
Température 30°C
Humidité 46%
Pression 1016 hPa
Visibilité 10 km ou plus

METAR: LFMU 211330Z AUTO 20010KT 160V220 9999 ///CB 30/17 Q1016 BECMG NSC

Heure: 16:06 (14:06 UTC)

Prévision

Le bulletin a été fait il y a 6 heures et 6 minutes, à 08:00 UTC
Prévision valable du 21 à 09 UTC au 22 à 09 UTC
Vent 3 kt de direction variable
Visibilité 10 km ou plus
pas de nuages en-dessous de 1500 mètres et pas de cumulonimbus.
Evoluant progressivement
du 21 à 10 UTC au 21 à 12 UTC
Vent 10 kt de sud
Evoluant progressivement
du 21 à 19 UTC au 21 à 21 UTC
Vent 10 kt de nord-ouest

TAF: LFMU 210800Z 2109/2209 VRB03KT CAVOK BECMG 2110/2112 18010KT BECMG 2119/2121 32010KT

Observations et prévisions météorologiques de plus de 4000 aéroports (messages METAR et TAF).

Les stations disponibles sont représentées par des disques jaunes et rouges sur la carte.

Passer la souris dessus pour voir le nom de la station.

Cliquer dessus pour voir les observations et prévisions météorologiques.

Pour changer de carte: cliquez sur les boutons verts avec une croix noire pour zoomer, sur le bouton vert avec un tiret pour effectuer un zoom arrière, ou sur les flèches vertes pour les cartes adjacentes.


METAR-TAF: